sensor_id;sensor_type;location;lat;lon;timestamp;P1;durP1;ratioP1;P2;durP2;ratioP2
40707;SDS011;26392;42.696;23.350;2023-02-15T00:01:05;58.47;;;24.33;;
40707;SDS011;26392;42.696;23.350;2023-02-15T00:03:34;60.08;;;24.75;;
40707;SDS011;26392;42.696;23.350;2023-02-15T00:06:00;54.42;;;23.40;;
40707;SDS011;26392;42.696;23.350;2023-02-15T00:08:26;63.55;;;25.80;;
40707;SDS011;26392;42.696;23.350;2023-02-15T00:10:52;62.75;;;24.90;;
40707;SDS011;26392;42.696;23.350;2023-02-15T00:13:17;62.50;;;25.88;;
40707;SDS011;26392;42.696;23.350;2023-02-15T00:15:42;60.70;;;24.67;;
40707;SDS011;26392;42.696;23.350;2023-02-15T00:18:08;60.42;;;23.88;;
40707;SDS011;26392;42.696;23.350;2023-02-15T00:20:33;58.78;;;24.80;;
40707;SDS011;26392;42.696;23.350;2023-02-15T00:22:59;61.42;;;24.98;;
40707;SDS011;26392;42.696;23.350;2023-02-15T00:25:25;62.10;;;25.48;;
40707;SDS011;26392;42.696;23.350;2023-02-15T00:27:50;59.40;;;26.05;;
40707;SDS011;26392;42.696;23.350;2023-02-15T00:30:15;57.42;;;23.50;;
40707;SDS011;26392;42.696;23.350;2023-02-15T00:32:41;61.70;;;25.30;;
40707;SDS011;26392;42.696;23.350;2023-02-15T00:35:07;58.85;;;23.95;;
40707;SDS011;26392;42.696;23.350;2023-02-15T00:37:34;59.72;;;25.25;;
40707;SDS011;26392;42.696;23.350;2023-02-15T00:39:59;57.00;;;24.77;;
40707;SDS011;26392;42.696;23.350;2023-02-15T00:42:25;58.53;;;24.35;;
40707;SDS011;26392;42.696;23.350;2023-02-15T00:44:50;59.78;;;25.73;;
40707;SDS011;26392;42.696;23.350;2023-02-15T00:47:15;57.97;;;24.33;;
40707;SDS011;26392;42.696;23.350;2023-02-15T00:49:41;54.80;;;24.42;;
40707;SDS011;26392;42.696;23.350;2023-02-15T00:52:06;58.35;;;25.75;;
40707;SDS011;26392;42.696;23.350;2023-02-15T00:54:32;56.95;;;25.83;;
40707;SDS011;26392;42.696;23.350;2023-02-15T00:56:59;57.08;;;24.77;;
40707;SDS011;26392;42.696;23.350;2023-02-15T00:59:24;59.45;;;23.80;;
40707;SDS011;26392;42.696;23.350;2023-02-15T01:01:50;55.63;;;23.95;;
40707;SDS011;26392;42.696;23.350;2023-02-15T01:04:15;62.13;;;24.90;;
40707;SDS011;26392;42.696;23.350;2023-02-15T01:06:41;55.03;;;23.30;;
40707;SDS011;26392;42.696;23.350;2023-02-15T01:09:06;57.38;;;24.27;;
40707;SDS011;26392;42.696;23.350;2023-02-15T01:11:31;56.05;;;23.13;;
40707;SDS011;26392;42.696;23.350;2023-02-15T01:13:57;64.75;;;25.88;;
40707;SDS011;26392;42.696;23.350;2023-02-15T01:16:23;57.25;;;23.65;;
40707;SDS011;26392;42.696;23.350;2023-02-15T01:18:50;54.88;;;23.60;;
40707;SDS011;26392;42.696;23.350;2023-02-15T01:21:17;52.67;;;23.70;;
40707;SDS011;26392;42.696;23.350;2023-02-15T01:23:44;61.15;;;23.92;;
40707;SDS011;26392;42.696;23.350;2023-02-15T01:26:10;59.20;;;25.83;;
40707;SDS011;26392;42.696;23.350;2023-02-15T01:28:36;55.00;;;23.02;;
40707;SDS011;26392;42.696;23.350;2023-02-15T01:31:08;56.97;;;25.05;;
40707;SDS011;26392;42.696;23.350;2023-02-15T01:33:36;50.20;;;22.90;;
40707;SDS011;26392;42.696;23.350;2023-02-15T01:36:02;66.53;;;23.77;;
40707;SDS011;26392;42.696;23.350;2023-02-15T01:38:28;62.35;;;23.63;;
40707;SDS011;26392;42.696;23.350;2023-02-15T01:40:54;58.78;;;24.40;;
40707;SDS011;26392;42.696;23.350;2023-02-15T01:43:45;59.67;;;23.13;;
40707;SDS011;26392;42.696;23.350;2023-02-15T01:46:12;56.67;;;23.38;;
40707;SDS011;26392;42.696;23.350;2023-02-15T01:48:43;56.78;;;22.88;;
40707;SDS011;26392;42.696;23.350;2023-02-15T01:51:14;54.90;;;23.92;;
40707;SDS011;26392;42.696;23.350;2023-02-15T01:53:47;55.40;;;24.23;;
40707;SDS011;26392;42.696;23.350;2023-02-15T01:56:27;62.85;;;23.52;;
40707;SDS011;26392;42.696;23.350;2023-02-15T01:58:56;57.30;;;23.17;;
40707;SDS011;26392;42.696;23.350;2023-02-15T02:01:27;53.00;;;21.83;;
40707;SDS011;26392;42.696;23.350;2023-02-15T02:06:21;51.70;;;22.65;;
40707;SDS011;26392;42.696;23.350;2023-02-15T02:08:47;55.55;;;23.33;;
40707;SDS011;26392;42.696;23.350;2023-02-15T02:11:13;57.63;;;23.17;;
40707;SDS011;26392;42.696;23.350;2023-02-15T02:13:40;49.08;;;22.35;;
40707;SDS011;26392;42.696;23.350;2023-02-15T02:16:10;54.30;;;22.85;;
40707;SDS011;26392;42.696;23.350;2023-02-15T02:18:49;55.40;;;23.40;;
40707;SDS011;26392;42.696;23.350;2023-02-15T02:21:35;52.05;;;22.88;;
40707;SDS011;26392;42.696;23.350;2023-02-15T02:42:55;53.38;;;22.60;;
40707;SDS011;26392;42.696;23.350;2023-02-15T02:45:40;53.88;;;22.50;;
40707;SDS011;26392;42.696;23.350;2023-02-15T02:48:22;50.47;;;22.63;;
40707;SDS011;26392;42.696;23.350;2023-02-15T02:50:51;53.63;;;21.85;;
40707;SDS011;26392;42.696;23.350;2023-02-15T02:53:17;57.20;;;21.75;;
40707;SDS011;26392;42.696;23.350;2023-02-15T02:55:46;53.78;;;22.30;;
40707;SDS011;26392;42.696;23.350;2023-02-15T03:00:55;52.63;;;22.25;;
40707;SDS011;26392;42.696;23.350;2023-02-15T03:03:36;47.42;;;22.95;;
40707;SDS011;26392;42.696;23.350;2023-02-15T03:06:10;54.75;;;22.80;;
40707;SDS011;26392;42.696;23.350;2023-02-15T03:08:43;49.97;;;22.98;;
40707;SDS011;26392;42.696;23.350;2023-02-15T03:11:13;50.72;;;22.08;;
40707;SDS011;26392;42.696;23.350;2023-02-15T03:13:39;53.55;;;23.05;;
40707;SDS011;26392;42.696;23.350;2023-02-15T03:16:05;53.95;;;22.60;;
40707;SDS011;26392;42.696;23.350;2023-02-15T03:18:56;51.00;;;22.98;;
40707;SDS011;26392;42.696;23.350;2023-02-15T03:21:31;46.97;;;20.98;;
40707;SDS011;26392;42.696;23.350;2023-02-15T03:24:07;46.53;;;20.83;;
40707;SDS011;26392;42.696;23.350;2023-02-15T03:26:37;46.05;;;21.30;;
40707;SDS011;26392;42.696;23.350;2023-02-15T03:29:05;51.50;;;22.05;;
40707;SDS011;26392;42.696;23.350;2023-02-15T03:31:33;50.35;;;21.17;;
40707;SDS011;26392;42.696;23.350;2023-02-15T03:34:06;48.00;;;21.17;;
40707;SDS011;26392;42.696;23.350;2023-02-15T03:42:20;50.75;;;21.27;;
40707;SDS011;26392;42.696;23.350;2023-02-15T03:44:54;50.83;;;20.92;;
40707;SDS011;26392;42.696;23.350;2023-02-15T03:47:28;44.08;;;19.80;;
40707;SDS011;26392;42.696;23.350;2023-02-15T03:50:09;45.67;;;21.15;;
40707;SDS011;26392;42.696;23.350;2023-02-15T03:52:58;45.90;;;20.13;;
40707;SDS011;26392;42.696;23.350;2023-02-15T03:55:27;43.13;;;19.15;;
40707;SDS011;26392;42.696;23.350;2023-02-15T03:57:53;51.72;;;21.50;;
40707;SDS011;26392;42.696;23.350;2023-02-15T04:00:37;46.00;;;20.02;;
40707;SDS011;26392;42.696;23.350;2023-02-15T04:03:38;45.90;;;19.45;;
40707;SDS011;26392;42.696;23.350;2023-02-15T04:06:07;48.25;;;18.88;;
40707;SDS011;26392;42.696;23.350;2023-02-15T04:08:32;43.28;;;20.92;;
40707;SDS011;26392;42.696;23.350;2023-02-15T04:11:16;43.55;;;18.33;;
40707;SDS011;26392;42.696;23.350;2023-02-15T04:13:42;50.83;;;20.45;;
40707;SDS011;26392;42.696;23.350;2023-02-15T04:16:07;42.65;;;20.33;;
40707;SDS011;26392;42.696;23.350;2023-02-15T04:21:22;46.47;;;19.88;;
40707;SDS011;26392;42.696;23.350;2023-02-15T04:24:07;44.83;;;19.55;;
40707;SDS011;26392;42.696;23.350;2023-02-15T04:26:51;41.97;;;20.73;;
40707;SDS011;26392;42.696;23.350;2023-02-15T04:29:21;46.78;;;20.58;;
40707;SDS011;26392;42.696;23.350;2023-02-15T04:31:48;43.58;;;19.38;;
40707;SDS011;26392;42.696;23.350;2023-02-15T04:34:13;51.80;;;20.75;;
40707;SDS011;26392;42.696;23.350;2023-02-15T04:36:40;49.42;;;20.45;;
40707;SDS011;26392;42.696;23.350;2023-02-15T04:39:06;46.28;;;19.70;;
40707;SDS011;26392;42.696;23.350;2023-02-15T04:41:32;45.05;;;20.63;;
40707;SDS011;26392;42.696;23.350;2023-02-15T04:43:59;52.70;;;21.15;;
40707;SDS011;26392;42.696;23.350;2023-02-15T04:46:25;46.30;;;19.65;;
40707;SDS011;26392;42.696;23.350;2023-02-15T04:48:51;43.45;;;20.30;;
40707;SDS011;26392;42.696;23.350;2023-02-15T04:51:17;44.17;;;20.35;;
40707;SDS011;26392;42.696;23.350;2023-02-15T04:53:42;45.55;;;20.27;;
40707;SDS011;26392;42.696;23.350;2023-02-15T04:56:08;48.55;;;20.05;;
40707;SDS011;26392;42.696;23.350;2023-02-15T04:58:33;45.78;;;19.73;;
40707;SDS011;26392;42.696;23.350;2023-02-15T05:01:00;42.22;;;18.95;;
40707;SDS011;26392;42.696;23.350;2023-02-15T05:03:26;47.63;;;20.58;;
40707;SDS011;26392;42.696;23.350;2023-02-15T05:05:51;45.50;;;19.60;;
40707;SDS011;26392;42.696;23.350;2023-02-15T05:08:17;49.40;;;21.25;;
40707;SDS011;26392;42.696;23.350;2023-02-15T05:10:42;45.30;;;20.00;;
40707;SDS011;26392;42.696;23.350;2023-02-15T05:13:08;44.28;;;20.70;;
40707;SDS011;26392;42.696;23.350;2023-02-15T05:15:33;47.22;;;20.30;;
40707;SDS011;26392;42.696;23.350;2023-02-15T05:17:59;47.70;;;19.67;;
40707;SDS011;26392;42.696;23.350;2023-02-15T05:20:24;44.38;;;20.95;;
40707;SDS011;26392;42.696;23.350;2023-02-15T05:22:53;49.00;;;20.98;;
40707;SDS011;26392;42.696;23.350;2023-02-15T05:25:19;46.70;;;19.30;;
40707;SDS011;26392;42.696;23.350;2023-02-15T05:28:03;42.87;;;19.40;;
40707;SDS011;26392;42.696;23.350;2023-02-15T05:33:13;47.92;;;20.80;;
40707;SDS011;26392;42.696;23.350;2023-02-15T05:35:38;47.03;;;21.17;;
40707;SDS011;26392;42.696;23.350;2023-02-15T05:38:04;48.28;;;20.73;;
40707;SDS011;26392;42.696;23.350;2023-02-15T05:40:29;45.45;;;19.77;;
40707;SDS011;26392;42.696;23.350;2023-02-15T05:42:55;46.53;;;20.52;;
40707;SDS011;26392;42.696;23.350;2023-02-15T05:45:21;43.83;;;20.25;;
40707;SDS011;26392;42.696;23.350;2023-02-15T05:47:46;48.80;;;21.90;;
40707;SDS011;26392;42.696;23.350;2023-02-15T05:50:12;46.72;;;21.35;;
40707;SDS011;26392;42.696;23.350;2023-02-15T05:52:37;42.67;;;19.02;;
40707;SDS011;26392;42.696;23.350;2023-02-15T05:55:03;47.33;;;20.17;;
40707;SDS011;26392;42.696;23.350;2023-02-15T05:57:29;45.63;;;20.40;;
40707;SDS011;26392;42.696;23.350;2023-02-15T05:59:55;43.95;;;19.65;;
40707;SDS011;26392;42.696;23.350;2023-02-15T06:02:20;41.65;;;19.20;;
40707;SDS011;26392;42.696;23.350;2023-02-15T06:04:46;44.45;;;19.80;;
40707;SDS011;26392;42.696;23.350;2023-02-15T06:07:11;39.90;;;19.15;;
40707;SDS011;26392;42.696;23.350;2023-02-15T06:09:37;44.97;;;19.58;;
40707;SDS011;26392;42.696;23.350;2023-02-15T06:12:02;48.72;;;20.27;;
40707;SDS011;26392;42.696;23.350;2023-02-15T06:14:28;45.70;;;20.02;;
40707;SDS011;26392;42.696;23.350;2023-02-15T06:16:53;47.85;;;20.67;;
40707;SDS011;26392;42.696;23.350;2023-02-15T06:19:18;43.78;;;19.95;;
40707;SDS011;26392;42.696;23.350;2023-02-15T06:21:44;43.67;;;19.45;;
40707;SDS011;26392;42.696;23.350;2023-02-15T06:24:09;42.35;;;20.20;;
40707;SDS011;26392;42.696;23.350;2023-02-15T06:26:35;40.70;;;17.42;;
40707;SDS011;26392;42.696;23.350;2023-02-15T06:29:00;46.05;;;20.48;;
40707;SDS011;26392;42.696;23.350;2023-02-15T06:31:26;43.85;;;18.63;;
40707;SDS011;26392;42.696;23.350;2023-02-15T06:33:51;46.33;;;19.00;;
40707;SDS011;26392;42.696;23.350;2023-02-15T06:36:17;42.00;;;18.55;;
40707;SDS011;26392;42.696;23.350;2023-02-15T06:38:42;45.53;;;19.30;;
40707;SDS011;26392;42.696;23.350;2023-02-15T06:41:08;46.10;;;18.15;;
40707;SDS011;26392;42.696;23.350;2023-02-15T06:43:33;42.05;;;19.38;;
40707;SDS011;26392;42.696;23.350;2023-02-15T06:45:59;46.85;;;18.58;;
40707;SDS011;26392;42.696;23.350;2023-02-15T06:48:25;45.97;;;19.30;;
40707;SDS011;26392;42.696;23.350;2023-02-15T06:50:51;45.28;;;20.20;;
40707;SDS011;26392;42.696;23.350;2023-02-15T06:53:17;44.42;;;19.23;;
40707;SDS011;26392;42.696;23.350;2023-02-15T06:55:42;43.45;;;19.75;;
40707;SDS011;26392;42.696;23.350;2023-02-15T06:58:08;44.72;;;19.50;;
40707;SDS011;26392;42.696;23.350;2023-02-15T07:00:34;40.95;;;19.38;;
40707;SDS011;26392;42.696;23.350;2023-02-15T07:02:59;40.70;;;18.80;;
40707;SDS011;26392;42.696;23.350;2023-02-15T07:05:25;42.17;;;18.40;;
40707;SDS011;26392;42.696;23.350;2023-02-15T07:07:56;40.83;;;18.85;;
40707;SDS011;26392;42.696;23.350;2023-02-15T07:10:24;43.67;;;18.45;;
40707;SDS011;26392;42.696;23.350;2023-02-15T07:12:50;37.13;;;17.27;;
40707;SDS011;26392;42.696;23.350;2023-02-15T07:15:16;39.70;;;17.58;;
40707;SDS011;26392;42.696;23.350;2023-02-15T07:17:43;43.90;;;18.05;;
40707;SDS011;26392;42.696;23.350;2023-02-15T07:20:16;36.22;;;17.27;;
40707;SDS011;26392;42.696;23.350;2023-02-15T07:25:09;34.10;;;16.20;;
40707;SDS011;26392;42.696;23.350;2023-02-15T07:27:36;39.83;;;17.38;;
40707;SDS011;26392;42.696;23.350;2023-02-15T07:30:02;42.72;;;17.40;;
40707;SDS011;26392;42.696;23.350;2023-02-15T07:32:31;38.17;;;16.90;;
40707;SDS011;26392;42.696;23.350;2023-02-15T07:34:57;33.35;;;16.30;;
40707;SDS011;26392;42.696;23.350;2023-02-15T07:37:24;40.33;;;17.20;;
40707;SDS011;26392;42.696;23.350;2023-02-15T07:39:49;35.65;;;16.17;;
40707;SDS011;26392;42.696;23.350;2023-02-15T07:42:15;42.70;;;18.88;;
40707;SDS011;26392;42.696;23.350;2023-02-15T07:44:40;39.55;;;17.17;;
40707;SDS011;26392;42.696;23.350;2023-02-15T07:47:05;43.33;;;16.90;;
40707;SDS011;26392;42.696;23.350;2023-02-15T07:49:31;37.30;;;16.23;;
40707;SDS011;26392;42.696;23.350;2023-02-15T07:51:56;36.83;;;16.70;;
40707;SDS011;26392;42.696;23.350;2023-02-15T07:54:22;34.50;;;16.80;;
40707;SDS011;26392;42.696;23.350;2023-02-15T07:56:47;34.58;;;16.30;;
40707;SDS011;26392;42.696;23.350;2023-02-15T07:59:13;35.55;;;15.68;;
40707;SDS011;26392;42.696;23.350;2023-02-15T08:01:38;39.33;;;17.92;;
40707;SDS011;26392;42.696;23.350;2023-02-15T08:04:05;38.05;;;17.23;;
40707;SDS011;26392;42.696;23.350;2023-02-15T08:06:33;31.40;;;16.23;;
40707;SDS011;26392;42.696;23.350;2023-02-15T08:09:00;33.53;;;16.90;;
40707;SDS011;26392;42.696;23.350;2023-02-15T08:11:29;40.45;;;19.27;;
40707;SDS011;26392;42.696;23.350;2023-02-15T08:21:31;38.28;;;17.50;;
40707;SDS011;26392;42.696;23.350;2023-02-15T08:23:58;39.70;;;19.08;;
40707;SDS011;26392;42.696;23.350;2023-02-15T08:26:24;43.50;;;17.27;;
40707;SDS011;26392;42.696;23.350;2023-02-15T08:28:51;43.33;;;19.92;;
40707;SDS011;26392;42.696;23.350;2023-02-15T08:31:16;46.90;;;20.17;;
40707;SDS011;26392;42.696;23.350;2023-02-15T08:33:45;41.15;;;19.58;;
40707;SDS011;26392;42.696;23.350;2023-02-15T08:36:12;43.15;;;20.05;;
40707;SDS011;26392;42.696;23.350;2023-02-15T08:38:40;45.40;;;19.27;;
40707;SDS011;26392;42.696;23.350;2023-02-15T08:43:44;48.03;;;21.42;;
40707;SDS011;26392;42.696;23.350;2023-02-15T08:46:11;39.72;;;17.88;;
40707;SDS011;26392;42.696;23.350;2023-02-15T08:48:38;35.88;;;15.95;;
40707;SDS011;26392;42.696;23.350;2023-02-15T08:51:07;31.48;;;16.05;;
40707;SDS011;26392;42.696;23.350;2023-02-15T08:53:35;36.28;;;16.33;;
40707;SDS011;26392;42.696;23.350;2023-02-15T08:56:02;34.22;;;15.25;;
40707;SDS011;26392;42.696;23.350;2023-02-15T08:58:28;28.55;;;14.32;;
40707;SDS011;26392;42.696;23.350;2023-02-15T09:00:54;33.53;;;15.57;;
40707;SDS011;26392;42.696;23.350;2023-02-15T09:03:19;30.48;;;13.80;;
40707;SDS011;26392;42.696;23.350;2023-02-15T09:05:44;27.13;;;13.48;;
40707;SDS011;26392;42.696;23.350;2023-02-15T09:08:10;29.88;;;14.60;;
40707;SDS011;26392;42.696;23.350;2023-02-15T09:10:35;43.33;;;16.30;;
40707;SDS011;26392;42.696;23.350;2023-02-15T09:13:01;29.92;;;14.18;;
40707;SDS011;26392;42.696;23.350;2023-02-15T09:15:26;28.65;;;14.27;;
40707;SDS011;26392;42.696;23.350;2023-02-15T09:17:51;30.52;;;14.60;;
40707;SDS011;26392;42.696;23.350;2023-02-15T09:20:18;31.52;;;14.95;;
40707;SDS011;26392;42.696;23.350;2023-02-15T09:22:43;29.35;;;14.90;;
40707;SDS011;26392;42.696;23.350;2023-02-15T09:25:08;28.40;;;13.57;;
40707;SDS011;26392;42.696;23.350;2023-02-15T09:27:34;27.67;;;12.88;;
40707;SDS011;26392;42.696;23.350;2023-02-15T09:29:59;30.70;;;14.95;;
40707;SDS011;26392;42.696;23.350;2023-02-15T09:32:24;35.45;;;15.75;;
40707;SDS011;26392;42.696;23.350;2023-02-15T09:34:50;35.38;;;17.17;;
40707;SDS011;26392;42.696;23.350;2023-02-15T09:37:15;37.83;;;15.07;;
40707;SDS011;26392;42.696;23.350;2023-02-15T09:39:41;31.13;;;15.10;;
40707;SDS011;26392;42.696;23.350;2023-02-15T09:45:19;28.25;;;13.32;;
40707;SDS011;26392;42.696;23.350;2023-02-15T09:51:13;30.85;;;15.23;;
40707;SDS011;26392;42.696;23.350;2023-02-15T09:57:34;36.85;;;15.07;;
40707;SDS011;26392;42.696;23.350;2023-02-15T10:05:21;29.40;;;14.90;;
40707;SDS011;26392;42.696;23.350;2023-02-15T10:23:04;29.25;;;15.65;;
40707;SDS011;26392;42.696;23.350;2023-02-15T10:27:45;29.83;;;15.27;;
40707;SDS011;26392;42.696;23.350;2023-02-15T10:30:13;32.10;;;15.13;;
40707;SDS011;26392;42.696;23.350;2023-02-15T10:32:58;30.85;;;16.40;;
40707;SDS011;26392;42.696;23.350;2023-02-15T10:35:30;33.40;;;15.90;;
40707;SDS011;26392;42.696;23.350;2023-02-15T11:08:35;34.17;;;16.83;;
40707;SDS011;26392;42.696;23.350;2023-02-15T11:11:05;37.97;;;16.75;;
40707;SDS011;26392;42.696;23.350;2023-02-15T11:13:35;35.80;;;15.45;;
40707;SDS011;26392;42.696;23.350;2023-02-15T11:16:16;32.42;;;16.38;;
40707;SDS011;26392;42.696;23.350;2023-02-15T11:18:50;39.08;;;17.65;;
40707;SDS011;26392;42.696;23.350;2023-02-15T11:21:22;34.78;;;16.58;;
40707;SDS011;26392;42.696;23.350;2023-02-15T11:23:52;35.42;;;17.40;;
40707;SDS011;26392;42.696;23.350;2023-02-15T11:26:26;41.95;;;18.95;;
40707;SDS011;26392;42.696;23.350;2023-02-15T11:29:10;37.78;;;18.60;;
40707;SDS011;26392;42.696;23.350;2023-02-15T11:31:46;39.80;;;18.47;;
40707;SDS011;26392;42.696;23.350;2023-02-15T11:34:18;33.55;;;16.55;;
40707;SDS011;26392;42.696;23.350;2023-02-15T11:36:50;34.78;;;17.33;;
40707;SDS011;26392;42.696;23.350;2023-02-15T11:39:18;34.58;;;17.25;;
40707;SDS011;26392;42.696;23.350;2023-02-15T11:41:47;35.95;;;17.45;;
40707;SDS011;26392;42.696;23.350;2023-02-15T11:44:25;39.90;;;18.17;;
40707;SDS011;26392;42.696;23.350;2023-02-15T11:46:56;40.08;;;17.73;;
40707;SDS011;26392;42.696;23.350;2023-02-15T11:49:30;37.83;;;17.58;;
40707;SDS011;26392;42.696;23.350;2023-02-15T11:51:58;35.67;;;17.02;;
40707;SDS011;26392;42.696;23.350;2023-02-15T11:54:34;35.03;;;16.02;;
40707;SDS011;26392;42.696;23.350;2023-02-15T11:57:11;36.03;;;17.10;;
40707;SDS011;26392;42.696;23.350;2023-02-15T12:03:29;32.08;;;16.20;;
40707;SDS011;26392;42.696;23.350;2023-02-15T12:06:12;37.40;;;17.27;;
40707;SDS011;26392;42.696;23.350;2023-02-15T12:08:46;36.45;;;16.65;;
40707;SDS011;26392;42.696;23.350;2023-02-15T12:11:22;35.92;;;17.50;;
40707;SDS011;26392;42.696;23.350;2023-02-15T12:14:02;38.15;;;16.15;;
40707;SDS011;26392;42.696;23.350;2023-02-15T12:16:32;33.50;;;16.45;;
40707;SDS011;26392;42.696;23.350;2023-02-15T12:19:09;40.33;;;17.15;;
40707;SDS011;26392;42.696;23.350;2023-02-15T12:21:49;40.15;;;16.70;;
40707;SDS011;26392;42.696;23.350;2023-02-15T12:26:43;36.08;;;16.63;;
40707;SDS011;26392;42.696;23.350;2023-02-15T12:29:15;40.03;;;16.60;;
40707;SDS011;26392;42.696;23.350;2023-02-15T12:31:46;36.15;;;17.33;;
40707;SDS011;26392;42.696;23.350;2023-02-15T12:34:31;37.90;;;17.20;;
40707;SDS011;26392;42.696;23.350;2023-02-15T12:37:08;33.05;;;16.77;;
40707;SDS011;26392;42.696;23.350;2023-02-15T12:39:39;35.78;;;16.67;;
40707;SDS011;26392;42.696;23.350;2023-02-15T12:42:17;33.63;;;16.73;;
40707;SDS011;26392;42.696;23.350;2023-02-15T12:45:00;38.00;;;17.13;;
40707;SDS011;26392;42.696;23.350;2023-02-15T12:47:28;41.15;;;17.90;;
40707;SDS011;26392;42.696;23.350;2023-02-15T12:50:06;34.58;;;17.00;;
40707;SDS011;26392;42.696;23.350;2023-02-15T12:52:48;32.88;;;15.73;;
40707;SDS011;26392;42.696;23.350;2023-02-15T12:55:25;35.20;;;16.42;;
40707;SDS011;26392;42.696;23.350;2023-02-15T12:58:04;32.95;;;17.40;;
40707;SDS011;26392;42.696;23.350;2023-02-15T13:00:31;33.28;;;16.45;;
40707;SDS011;26392;42.696;23.350;2023-02-15T13:02:57;37.65;;;16.83;;
40707;SDS011;26392;42.696;23.350;2023-02-15T13:05:39;32.33;;;16.80;;
40707;SDS011;26392;42.696;23.350;2023-02-15T13:10:53;36.40;;;17.20;;
40707;SDS011;26392;42.696;23.350;2023-02-15T13:13:47;37.83;;;17.08;;
40707;SDS011;26392;42.696;23.350;2023-02-15T13:16:17;33.20;;;16.48;;
40707;SDS011;26392;42.696;23.350;2023-02-15T13:18:49;35.58;;;16.40;;
40707;SDS011;26392;42.696;23.350;2023-02-15T13:21:31;31.05;;;15.88;;
40707;SDS011;26392;42.696;23.350;2023-02-15T13:24:05;38.05;;;17.25;;
40707;SDS011;26392;42.696;23.350;2023-02-15T13:26:32;33.53;;;16.23;;
40707;SDS011;26392;42.696;23.350;2023-02-15T13:29:11;36.17;;;16.63;;
40707;SDS011;26392;42.696;23.350;2023-02-15T13:31:43;35.08;;;15.82;;
40707;SDS011;26392;42.696;23.350;2023-02-15T13:34:10;35.88;;;16.52;;
40707;SDS011;26392;42.696;23.350;2023-02-15T13:39:33;35.25;;;17.00;;
40707;SDS011;26392;42.696;23.350;2023-02-15T13:42:30;34.05;;;16.95;;
40707;SDS011;26392;42.696;23.350;2023-02-15T13:47:46;34.80;;;17.35;;
40707;SDS011;26392;42.696;23.350;2023-02-15T13:53:20;34.80;;;16.95;;
40707;SDS011;26392;42.696;23.350;2023-02-15T13:59:00;33.30;;;16.73;;
40707;SDS011;26392;42.696;23.350;2023-02-15T14:01:45;37.25;;;18.35;;
40707;SDS011;26392;42.696;23.350;2023-02-15T14:25:58;31.80;;;16.20;;
40707;SDS011;26392;42.696;23.350;2023-02-15T14:28:33;41.55;;;19.92;;
40707;SDS011;26392;42.696;23.350;2023-02-15T14:31:09;37.15;;;17.98;;
40707;SDS011;26392;42.696;23.350;2023-02-15T14:33:39;37.13;;;18.40;;
40707;SDS011;26392;42.696;23.350;2023-02-15T14:36:08;42.60;;;19.08;;
40707;SDS011;26392;42.696;23.350;2023-02-15T14:44:40;35.25;;;16.98;;
40707;SDS011;26392;42.696;23.350;2023-02-15T14:47:15;44.80;;;20.75;;
40707;SDS011;26392;42.696;23.350;2023-02-15T14:49:43;45.65;;;19.25;;
40707;SDS011;26392;42.696;23.350;2023-02-15T14:52:09;44.40;;;19.55;;
40707;SDS011;26392;42.696;23.350;2023-02-15T15:00:22;39.28;;;18.65;;
40707;SDS011;26392;42.696;23.350;2023-02-15T15:02:16;36.85;;;16.88;;
40707;SDS011;26392;42.696;23.350;2023-02-15T15:07:23;38.88;;;18.50;;
40707;SDS011;26392;42.696;23.350;2023-02-15T15:10:04;36.47;;;17.15;;
40707;SDS011;26392;42.696;23.350;2023-02-15T15:12:40;39.28;;;17.35;;
40707;SDS011;26392;42.696;23.350;2023-02-15T15:25:42;40.28;;;18.45;;
40707;SDS011;26392;42.696;23.350;2023-02-15T15:28:56;36.55;;;17.42;;
40707;SDS011;26392;42.696;23.350;2023-02-15T15:34:27;41.67;;;18.80;;
40707;SDS011;26392;42.696;23.350;2023-02-15T15:39:20;43.40;;;20.10;;
40707;SDS011;26392;42.696;23.350;2023-02-15T15:50:34;41.67;;;18.30;;
40707;SDS011;26392;42.696;23.350;2023-02-15T15:53:05;38.90;;;18.60;;
40707;SDS011;26392;42.696;23.350;2023-02-15T15:58:06;41.47;;;18.55;;
40707;SDS011;26392;42.696;23.350;2023-02-15T16:03:21;38.58;;;18.25;;
40707;SDS011;26392;42.696;23.350;2023-02-15T16:05:47;40.05;;;18.75;;
40707;SDS011;26392;42.696;23.350;2023-02-15T16:08:39;36.80;;;18.30;;
40707;SDS011;26392;42.696;23.350;2023-02-15T16:11:14;43.13;;;19.85;;
40707;SDS011;26392;42.696;23.350;2023-02-15T16:13:44;40.88;;;18.17;;
40707;SDS011;26392;42.696;23.350;2023-02-15T16:16:11;41.15;;;19.70;;
40707;SDS011;26392;42.696;23.350;2023-02-15T16:18:38;41.17;;;19.52;;
40707;SDS011;26392;42.696;23.350;2023-02-15T16:21:12;49.28;;;19.60;;
40707;SDS011;26392;42.696;23.350;2023-02-15T16:24:46;40.33;;;18.95;;
40707;SDS011;26392;42.696;23.350;2023-02-15T16:29:31;47.25;;;21.30;;
40707;SDS011;26392;42.696;23.350;2023-02-15T16:34:31;41.70;;;19.35;;
40707;SDS011;26392;42.696;23.350;2023-02-15T16:37:16;45.22;;;20.85;;
40707;SDS011;26392;42.696;23.350;2023-02-15T16:39:44;43.83;;;19.30;;
40707;SDS011;26392;42.696;23.350;2023-02-15T16:42:12;44.60;;;20.63;;
40707;SDS011;26392;42.696;23.350;2023-02-15T16:44:39;44.80;;;19.98;;
40707;SDS011;26392;42.696;23.350;2023-02-15T16:47:07;47.90;;;20.50;;
40707;SDS011;26392;42.696;23.350;2023-02-15T16:49:42;47.28;;;21.05;;
40707;SDS011;26392;42.696;23.350;2023-02-15T16:52:12;50.28;;;21.40;;
40707;SDS011;26392;42.696;23.350;2023-02-15T16:54:43;47.78;;;20.25;;
40707;SDS011;26392;42.696;23.350;2023-02-15T16:57:18;44.65;;;20.65;;
40707;SDS011;26392;42.696;23.350;2023-02-15T16:59:47;44.28;;;21.15;;
40707;SDS011;26392;42.696;23.350;2023-02-15T17:02:21;45.28;;;20.08;;
40707;SDS011;26392;42.696;23.350;2023-02-15T17:05:05;46.05;;;21.75;;
40707;SDS011;26392;42.696;23.350;2023-02-15T17:11:10;43.20;;;20.17;;
40707;SDS011;26392;42.696;23.350;2023-02-15T17:13:39;48.93;;;21.33;;
40707;SDS011;26392;42.696;23.350;2023-02-15T17:16:27;45.60;;;20.58;;
40707;SDS011;26392;42.696;23.350;2023-02-15T17:18:54;40.67;;;19.33;;
40707;SDS011;26392;42.696;23.350;2023-02-15T17:21:24;40.08;;;20.10;;
40707;SDS011;26392;42.696;23.350;2023-02-15T17:23:59;42.85;;;19.95;;
40707;SDS011;26392;42.696;23.350;2023-02-15T17:26:30;41.97;;;20.23;;
40707;SDS011;26392;42.696;23.350;2023-02-15T17:29:02;44.53;;;21.30;;
40707;SDS011;26392;42.696;23.350;2023-02-15T17:31:35;48.58;;;19.85;;
40707;SDS011;26392;42.696;23.350;2023-02-15T17:34:01;45.42;;;19.65;;
40707;SDS011;26392;42.696;23.350;2023-02-15T17:36:27;48.30;;;19.40;;
40707;SDS011;26392;42.696;23.350;2023-02-15T17:41:26;44.97;;;20.02;;
40707;SDS011;26392;42.696;23.350;2023-02-15T17:43:53;44.20;;;19.92;;
40707;SDS011;26392;42.696;23.350;2023-02-15T17:46:19;48.90;;;20.75;;
40707;SDS011;26392;42.696;23.350;2023-02-15T17:48:48;44.70;;;20.73;;
40707;SDS011;26392;42.696;23.350;2023-02-15T17:51:16;48.13;;;22.73;;
40707;SDS011;26392;42.696;23.350;2023-02-15T17:53:43;44.75;;;20.75;;